sensor_id;sensor_type;location;lat;lon;timestamp;P1;durP1;ratioP1;P2;durP2;ratioP2
3613;SDS011;1821;50.936;6.854;2023-01-19T00:00:21;11.88;;;8.40;;
3613;SDS011;1821;50.936;6.854;2023-01-19T00:01:03;10.05;;;7.22;;
3613;SDS011;1821;50.936;6.854;2023-01-19T00:01:45;8.52;;;6.75;;
3613;SDS011;1821;50.936;6.854;2023-01-19T00:02:27;9.32;;;7.13;;
3613;SDS011;1821;50.936;6.854;2023-01-19T00:03:09;9.40;;;7.70;;
3613;SDS011;1821;50.936;6.854;2023-01-19T00:03:56;10.30;;;7.50;;
3613;SDS011;1821;50.936;6.854;2023-01-19T00:04:38;11.52;;;7.82;;
3613;SDS011;1821;50.936;6.854;2023-01-19T00:05:20;8.57;;;7.40;;
3613;SDS011;1821;50.936;6.854;2023-01-19T00:06:05;8.25;;;6.82;;
3613;SDS011;1821;50.936;6.854;2023-01-19T00:06:50;10.95;;;7.47;;
3613;SDS011;1821;50.936;6.854;2023-01-19T00:07:32;11.55;;;7.63;;
3613;SDS011;1821;50.936;6.854;2023-01-19T00:08:14;11.50;;;8.38;;
3613;SDS011;1821;50.936;6.854;2023-01-19T00:08:56;13.63;;;8.70;;
3613;SDS011;1821;50.936;6.854;2023-01-19T00:09:38;12.00;;;8.63;;
3613;SDS011;1821;50.936;6.854;2023-01-19T00:10:20;10.30;;;8.27;;
3613;SDS011;1821;50.936;6.854;2023-01-19T00:11:01;9.35;;;7.75;;
3613;SDS011;1821;50.936;6.854;2023-01-19T00:11:43;11.55;;;7.82;;
3613;SDS011;1821;50.936;6.854;2023-01-19T00:12:28;11.27;;;7.85;;
3613;SDS011;1821;50.936;6.854;2023-01-19T00:13:12;12.50;;;8.55;;
3613;SDS011;1821;50.936;6.854;2023-01-19T00:13:55;10.55;;;8.32;;
3613;SDS011;1821;50.936;6.854;2023-01-19T00:14:37;9.98;;;7.68;;
3613;SDS011;1821;50.936;6.854;2023-01-19T00:15:19;10.30;;;7.88;;
3613;SDS011;1821;50.936;6.854;2023-01-19T00:16:01;11.48;;;8.57;;
3613;SDS011;1821;50.936;6.854;2023-01-19T00:16:43;10.77;;;7.97;;
3613;SDS011;1821;50.936;6.854;2023-01-19T00:17:25;10.50;;;7.60;;
3613;SDS011;1821;50.936;6.854;2023-01-19T00:18:06;10.70;;;7.35;;
3613;SDS011;1821;50.936;6.854;2023-01-19T00:18:51;10.80;;;7.90;;
3613;SDS011;1821;50.936;6.854;2023-01-19T00:19:33;10.68;;;7.47;;
3613;SDS011;1821;50.936;6.854;2023-01-19T00:20:15;8.85;;;7.45;;
3613;SDS011;1821;50.936;6.854;2023-01-19T00:20:57;9.20;;;7.75;;
3613;SDS011;1821;50.936;6.854;2023-01-19T00:21:39;9.75;;;8.02;;
3613;SDS011;1821;50.936;6.854;2023-01-19T00:22:21;11.63;;;7.63;;
3613;SDS011;1821;50.936;6.854;2023-01-19T00:23:02;11.98;;;7.57;;
3613;SDS011;1821;50.936;6.854;2023-01-19T00:23:45;11.20;;;7.50;;
3613;SDS011;1821;50.936;6.854;2023-01-19T00:24:27;10.63;;;7.30;;
3613;SDS011;1821;50.936;6.854;2023-01-19T00:25:09;9.93;;;7.40;;
3613;SDS011;1821;50.936;6.854;2023-01-19T00:25:51;12.27;;;7.60;;
3613;SDS011;1821;50.936;6.854;2023-01-19T00:26:33;11.70;;;7.65;;
3613;SDS011;1821;50.936;6.854;2023-01-19T00:27:14;10.52;;;6.90;;
3613;SDS011;1821;50.936;6.854;2023-01-19T00:27:56;9.07;;;7.10;;
3613;SDS011;1821;50.936;6.854;2023-01-19T00:28:42;10.07;;;7.25;;
3613;SDS011;1821;50.936;6.854;2023-01-19T00:29:24;10.43;;;7.45;;
3613;SDS011;1821;50.936;6.854;2023-01-19T00:30:10;10.73;;;7.10;;
3613;SDS011;1821;50.936;6.854;2023-01-19T00:30:52;10.00;;;7.00;;
3613;SDS011;1821;50.936;6.854;2023-01-19T00:31:34;9.38;;;7.25;;
3613;SDS011;1821;50.936;6.854;2023-01-19T00:32:16;9.90;;;7.68;;
3613;SDS011;1821;50.936;6.854;2023-01-19T00:32:58;8.98;;;7.13;;
3613;SDS011;1821;50.936;6.854;2023-01-19T00:33:40;8.98;;;7.43;;
3613;SDS011;1821;50.936;6.854;2023-01-19T00:34:22;9.73;;;6.95;;
3613;SDS011;1821;50.936;6.854;2023-01-19T00:35:04;11.13;;;7.40;;
3613;SDS011;1821;50.936;6.854;2023-01-19T00:35:49;10.80;;;7.18;;
3613;SDS011;1821;50.936;6.854;2023-01-19T00:36:33;10.02;;;7.50;;
3613;SDS011;1821;50.936;6.854;2023-01-19T00:37:15;11.35;;;7.03;;
3613;SDS011;1821;50.936;6.854;2023-01-19T00:37:58;12.70;;;6.78;;
3613;SDS011;1821;50.936;6.854;2023-01-19T00:38:39;9.68;;;7.38;;
3613;SDS011;1821;50.936;6.854;2023-01-19T00:39:21;9.73;;;7.03;;
3613;SDS011;1821;50.936;6.854;2023-01-19T00:40:03;10.60;;;7.50;;
3613;SDS011;1821;50.936;6.854;2023-01-19T00:40:46;9.38;;;7.10;;
3613;SDS011;1821;50.936;6.854;2023-01-19T00:41:28;9.32;;;6.75;;
3613;SDS011;1821;50.936;6.854;2023-01-19T00:42:28;9.02;;;6.90;;
3613;SDS011;1821;50.936;6.854;2023-01-19T00:43:24;8.82;;;6.80;;
3613;SDS011;1821;50.936;6.854;2023-01-19T00:44:06;8.63;;;6.55;;
3613;SDS011;1821;50.936;6.854;2023-01-19T00:44:48;9.30;;;6.60;;
3613;SDS011;1821;50.936;6.854;2023-01-19T00:45:32;10.00;;;7.03;;
3613;SDS011;1821;50.936;6.854;2023-01-19T00:46:17;9.85;;;7.38;;
3613;SDS011;1821;50.936;6.854;2023-01-19T00:46:59;12.18;;;7.32;;
3613;SDS011;1821;50.936;6.854;2023-01-19T00:47:41;12.60;;;6.65;;
3613;SDS011;1821;50.936;6.854;2023-01-19T00:48:23;10.68;;;6.70;;
3613;SDS011;1821;50.936;6.854;2023-01-19T00:49:07;10.50;;;6.80;;
3613;SDS011;1821;50.936;6.854;2023-01-19T00:49:49;10.02;;;6.70;;
3613;SDS011;1821;50.936;6.854;2023-01-19T00:50:31;9.90;;;6.25;;
3613;SDS011;1821;50.936;6.854;2023-01-19T00:51:16;12.93;;;7.20;;
3613;SDS011;1821;50.936;6.854;2023-01-19T00:52:00;9.82;;;6.45;;
3613;SDS011;1821;50.936;6.854;2023-01-19T00:52:42;9.85;;;6.70;;
3613;SDS011;1821;50.936;6.854;2023-01-19T00:53:24;11.00;;;6.30;;
3613;SDS011;1821;50.936;6.854;2023-01-19T00:54:12;11.13;;;6.47;;
3613;SDS011;1821;50.936;6.854;2023-01-19T00:54:54;11.93;;;7.10;;
3613;SDS011;1821;50.936;6.854;2023-01-19T00:55:36;13.23;;;6.85;;
3613;SDS011;1821;50.936;6.854;2023-01-19T00:56:18;9.65;;;6.78;;
3613;SDS011;1821;50.936;6.854;2023-01-19T00:57:00;8.48;;;6.60;;
3613;SDS011;1821;50.936;6.854;2023-01-19T00:57:42;8.60;;;6.78;;
3613;SDS011;1821;50.936;6.854;2023-01-19T00:58:24;8.70;;;6.65;;
3613;SDS011;1821;50.936;6.854;2023-01-19T00:59:06;9.45;;;6.47;;
3613;SDS011;1821;50.936;6.854;2023-01-19T00:59:50;9.68;;;6.28;;
3613;SDS011;1821;50.936;6.854;2023-01-19T01:00:32;10.65;;;6.00;;
3613;SDS011;1821;50.936;6.854;2023-01-19T01:01:14;11.05;;;5.95;;
3613;SDS011;1821;50.936;6.854;2023-01-19T01:01:58;9.82;;;5.63;;
3613;SDS011;1821;50.936;6.854;2023-01-19T01:02:41;7.57;;;6.22;;
3613;SDS011;1821;50.936;6.854;2023-01-19T01:03:24;7.63;;;6.15;;
3613;SDS011;1821;50.936;6.854;2023-01-19T01:04:10;7.50;;;5.53;;
3613;SDS011;1821;50.936;6.854;2023-01-19T01:04:53;7.72;;;5.57;;
3613;SDS011;1821;50.936;6.854;2023-01-19T01:05:38;8.63;;;5.53;;
3613;SDS011;1821;50.936;6.854;2023-01-19T01:06:22;9.82;;;5.40;;
3613;SDS011;1821;50.936;6.854;2023-01-19T01:07:05;7.32;;;5.28;;
3613;SDS011;1821;50.936;6.854;2023-01-19T01:07:47;7.03;;;5.32;;
3613;SDS011;1821;50.936;6.854;2023-01-19T01:08:32;7.63;;;5.30;;
3613;SDS011;1821;50.936;6.854;2023-01-19T01:09:15;7.93;;;5.75;;
3613;SDS011;1821;50.936;6.854;2023-01-19T01:09:56;6.53;;;5.60;;
3613;SDS011;1821;50.936;6.854;2023-01-19T01:10:38;8.25;;;5.97;;
3613;SDS011;1821;50.936;6.854;2023-01-19T01:11:20;10.10;;;5.93;;
3613;SDS011;1821;50.936;6.854;2023-01-19T01:12:02;8.32;;;6.35;;
3613;SDS011;1821;50.936;6.854;2023-01-19T01:12:46;8.88;;;6.50;;
3613;SDS011;1821;50.936;6.854;2023-01-19T01:13:38;8.75;;;5.30;;
3613;SDS011;1821;50.936;6.854;2023-01-19T01:14:21;7.35;;;5.60;;
3613;SDS011;1821;50.936;6.854;2023-01-19T01:15:06;8.88;;;6.30;;
3613;SDS011;1821;50.936;6.854;2023-01-19T01:15:49;8.10;;;5.47;;
3613;SDS011;1821;50.936;6.854;2023-01-19T01:16:32;7.63;;;5.20;;
3613;SDS011;1821;50.936;6.854;2023-01-19T01:17:15;8.27;;;5.63;;
3613;SDS011;1821;50.936;6.854;2023-01-19T01:17:56;8.25;;;5.40;;
3613;SDS011;1821;50.936;6.854;2023-01-19T01:18:38;7.70;;;5.85;;
3613;SDS011;1821;50.936;6.854;2023-01-19T01:19:20;7.00;;;6.30;;
3613;SDS011;1821;50.936;6.854;2023-01-19T01:20:02;7.70;;;5.43;;
3613;SDS011;1821;50.936;6.854;2023-01-19T01:20:47;9.07;;;5.60;;
3613;SDS011;1821;50.936;6.854;2023-01-19T01:21:29;11.63;;;5.93;;
3613;SDS011;1821;50.936;6.854;2023-01-19T01:22:11;8.80;;;5.70;;
3613;SDS011;1821;50.936;6.854;2023-01-19T01:22:53;6.97;;;5.22;;
3613;SDS011;1821;50.936;6.854;2023-01-19T01:23:35;6.55;;;5.00;;
3613;SDS011;1821;50.936;6.854;2023-01-19T01:24:17;8.30;;;5.50;;
3613;SDS011;1821;50.936;6.854;2023-01-19T01:24:59;8.82;;;5.38;;
3613;SDS011;1821;50.936;6.854;2023-01-19T01:25:43;6.80;;;5.20;;
3613;SDS011;1821;50.936;6.854;2023-01-19T01:26:26;6.00;;;4.70;;
3613;SDS011;1821;50.936;6.854;2023-01-19T01:27:09;8.20;;;5.20;;
3613;SDS011;1821;50.936;6.854;2023-01-19T01:27:52;7.78;;;5.20;;
3613;SDS011;1821;50.936;6.854;2023-01-19T01:28:34;7.75;;;5.35;;
3613;SDS011;1821;50.936;6.854;2023-01-19T01:29:16;7.43;;;5.30;;
3613;SDS011;1821;50.936;6.854;2023-01-19T01:29:58;7.82;;;5.22;;
3613;SDS011;1821;50.936;6.854;2023-01-19T01:30:40;10.05;;;5.20;;
3613;SDS011;1821;50.936;6.854;2023-01-19T01:31:23;10.45;;;5.95;;
3613;SDS011;1821;50.936;6.854;2023-01-19T01:32:06;7.43;;;5.60;;
3613;SDS011;1821;50.936;6.854;2023-01-19T01:32:48;6.20;;;4.85;;
3613;SDS011;1821;50.936;6.854;2023-01-19T01:33:30;7.63;;;5.10;;
3613;SDS011;1821;50.936;6.854;2023-01-19T01:34:21;5.53;;;4.32;;
3613;SDS011;1821;50.936;6.854;2023-01-19T01:35:03;5.50;;;4.43;;
3613;SDS011;1821;50.936;6.854;2023-01-19T01:35:47;6.20;;;4.80;;
3613;SDS011;1821;50.936;6.854;2023-01-19T01:36:30;6.93;;;4.70;;
3613;SDS011;1821;50.936;6.854;2023-01-19T01:37:13;6.20;;;4.60;;
3613;SDS011;1821;50.936;6.854;2023-01-19T01:37:56;6.28;;;4.82;;
3613;SDS011;1821;50.936;6.854;2023-01-19T01:38:39;5.90;;;4.65;;
3613;SDS011;1821;50.936;6.854;2023-01-19T01:39:21;7.15;;;4.90;;
3613;SDS011;1821;50.936;6.854;2023-01-19T01:40:04;7.60;;;5.10;;
3613;SDS011;1821;50.936;6.854;2023-01-19T01:40:46;7.03;;;4.90;;
3613;SDS011;1821;50.936;6.854;2023-01-19T01:41:28;6.03;;;4.85;;
3613;SDS011;1821;50.936;6.854;2023-01-19T01:42:14;8.68;;;5.38;;
3613;SDS011;1821;50.936;6.854;2023-01-19T01:42:58;5.75;;;4.65;;
3613;SDS011;1821;50.936;6.854;2023-01-19T01:43:42;6.40;;;4.95;;
3613;SDS011;1821;50.936;6.854;2023-01-19T01:44:43;7.32;;;5.03;;
3613;SDS011;1821;50.936;6.854;2023-01-19T01:45:32;7.28;;;4.70;;
3613;SDS011;1821;50.936;6.854;2023-01-19T01:46:16;5.10;;;4.60;;
3613;SDS011;1821;50.936;6.854;2023-01-19T01:46:58;4.82;;;4.32;;
3613;SDS011;1821;50.936;6.854;2023-01-19T01:47:44;5.93;;;4.45;;
3613;SDS011;1821;50.936;6.854;2023-01-19T01:48:28;7.20;;;4.80;;
3613;SDS011;1821;50.936;6.854;2023-01-19T01:49:14;7.13;;;4.78;;
3613;SDS011;1821;50.936;6.854;2023-01-19T01:50:51;7.60;;;5.10;;
3613;SDS011;1821;50.936;6.854;2023-01-19T01:51:55;5.78;;;4.90;;
3613;SDS011;1821;50.936;6.854;2023-01-19T01:52:42;6.43;;;4.60;;
3613;SDS011;1821;50.936;6.854;2023-01-19T01:53:48;5.53;;;4.50;;
3613;SDS011;1821;50.936;6.854;2023-01-19T01:54:44;5.90;;;4.40;;
3613;SDS011;1821;50.936;6.854;2023-01-19T01:55:26;6.30;;;4.90;;
3613;SDS011;1821;50.936;6.854;2023-01-19T01:56:12;7.50;;;4.70;;
3613;SDS011;1821;50.936;6.854;2023-01-19T01:56:59;6.05;;;4.38;;
3613;SDS011;1821;50.936;6.854;2023-01-19T01:57:44;6.80;;;5.00;;
3613;SDS011;1821;50.936;6.854;2023-01-19T01:58:30;9.10;;;5.10;;
3613;SDS011;1821;50.936;6.854;2023-01-19T01:59:16;5.88;;;4.50;;
3613;SDS011;1821;50.936;6.854;2023-01-19T02:00:06;6.85;;;4.68;;
3613;SDS011;1821;50.936;6.854;2023-01-19T02:00:49;5.53;;;4.75;;
3613;SDS011;1821;50.936;6.854;2023-01-19T02:01:56;6.10;;;4.38;;
3613;SDS011;1821;50.936;6.854;2023-01-19T02:02:59;8.27;;;5.28;;
3613;SDS011;1821;50.936;6.854;2023-01-19T02:03:41;7.88;;;5.40;;
3613;SDS011;1821;50.936;6.854;2023-01-19T02:04:23;7.15;;;5.35;;
3613;SDS011;1821;50.936;6.854;2023-01-19T02:05:09;6.93;;;4.95;;
3613;SDS011;1821;50.936;6.854;2023-01-19T02:06:12;7.45;;;4.85;;
3613;SDS011;1821;50.936;6.854;2023-01-19T02:06:54;7.15;;;4.30;;
3613;SDS011;1821;50.936;6.854;2023-01-19T02:08:02;4.90;;;4.38;;
3613;SDS011;1821;50.936;6.854;2023-01-19T02:09:18;6.03;;;4.47;;
3613;SDS011;1821;50.936;6.854;2023-01-19T02:10:21;5.45;;;4.72;;
3613;SDS011;1821;50.936;6.854;2023-01-19T02:11:21;5.60;;;4.53;;
3613;SDS011;1821;50.936;6.854;2023-01-19T02:12:22;6.95;;;4.60;;
3613;SDS011;1821;50.936;6.854;2023-01-19T02:13:22;7.18;;;4.97;;
3613;SDS011;1821;50.936;6.854;2023-01-19T02:14:05;8.82;;;5.10;;
3613;SDS011;1821;50.936;6.854;2023-01-19T02:14:47;7.20;;;5.18;;
3613;SDS011;1821;50.936;6.854;2023-01-19T02:15:31;8.07;;;5.20;;
3613;SDS011;1821;50.936;6.854;2023-01-19T02:16:15;6.95;;;4.68;;
3613;SDS011;1821;50.936;6.854;2023-01-19T02:16:57;6.65;;;4.43;;
3613;SDS011;1821;50.936;6.854;2023-01-19T02:17:39;6.30;;;4.70;;
3613;SDS011;1821;50.936;6.854;2023-01-19T02:18:22;6.00;;;4.70;;
3613;SDS011;1821;50.936;6.854;2023-01-19T02:19:07;5.25;;;4.75;;
3613;SDS011;1821;50.936;6.854;2023-01-19T02:19:53;5.30;;;4.20;;
3613;SDS011;1821;50.936;6.854;2023-01-19T02:20:36;7.07;;;4.65;;
3613;SDS011;1821;50.936;6.854;2023-01-19T02:21:28;6.93;;;4.70;;
3613;SDS011;1821;50.936;6.854;2023-01-19T02:23:14;7.55;;;4.65;;
3613;SDS011;1821;50.936;6.854;2023-01-19T02:24:03;5.45;;;4.57;;
3613;SDS011;1821;50.936;6.854;2023-01-19T02:24:46;6.03;;;4.80;;
3613;SDS011;1821;50.936;6.854;2023-01-19T02:25:30;6.10;;;4.70;;
3613;SDS011;1821;50.936;6.854;2023-01-19T02:26:14;7.53;;;5.30;;
3613;SDS011;1821;50.936;6.854;2023-01-19T02:27:26;5.43;;;4.60;;
3613;SDS011;1821;50.936;6.854;2023-01-19T02:28:08;8.50;;;5.20;;
3613;SDS011;1821;50.936;6.854;2023-01-19T02:29:00;8.45;;;5.13;;
3613;SDS011;1821;50.936;6.854;2023-01-19T02:29:44;5.78;;;5.00;;
3613;SDS011;1821;50.936;6.854;2023-01-19T02:30:26;8.00;;;5.10;;
3613;SDS011;1821;50.936;6.854;2023-01-19T02:31:08;9.10;;;5.28;;
3613;SDS011;1821;50.936;6.854;2023-01-19T02:31:50;6.85;;;5.30;;
3613;SDS011;1821;50.936;6.854;2023-01-19T02:32:34;6.30;;;5.20;;
3613;SDS011;1821;50.936;6.854;2023-01-19T02:33:16;7.40;;;5.60;;
3613;SDS011;1821;50.936;6.854;2023-01-19T02:33:58;8.70;;;5.32;;
3613;SDS011;1821;50.936;6.854;2023-01-19T02:34:41;7.70;;;5.45;;
3613;SDS011;1821;50.936;6.854;2023-01-19T02:35:23;7.18;;;4.95;;
3613;SDS011;1821;50.936;6.854;2023-01-19T02:36:06;6.57;;;4.88;;
3613;SDS011;1821;50.936;6.854;2023-01-19T02:36:51;6.88;;;5.30;;
3613;SDS011;1821;50.936;6.854;2023-01-19T02:37:55;9.73;;;6.20;;
3613;SDS011;1821;50.936;6.854;2023-01-19T02:38:38;6.30;;;5.30;;
3613;SDS011;1821;50.936;6.854;2023-01-19T02:39:35;7.13;;;5.35;;
3613;SDS011;1821;50.936;6.854;2023-01-19T02:40:25;6.68;;;5.03;;
3613;SDS011;1821;50.936;6.854;2023-01-19T02:41:08;6.25;;;4.65;;
3613;SDS011;1821;50.936;6.854;2023-01-19T02:41:56;6.13;;;4.63;;
3613;SDS011;1821;50.936;6.854;2023-01-19T02:42:51;6.10;;;4.90;;
3613;SDS011;1821;50.936;6.854;2023-01-19T02:43:40;6.60;;;5.20;;
3613;SDS011;1821;50.936;6.854;2023-01-19T02:44:23;7.57;;;5.00;;
3613;SDS011;1821;50.936;6.854;2023-01-19T02:45:07;8.30;;;5.47;;
3613;SDS011;1821;50.936;6.854;2023-01-19T02:45:52;6.00;;;5.20;;
3613;SDS011;1821;50.936;6.854;2023-01-19T02:46:36;8.20;;;5.53;;
3613;SDS011;1821;50.936;6.854;2023-01-19T02:47:18;6.03;;;5.25;;
3613;SDS011;1821;50.936;6.854;2023-01-19T02:48:00;6.88;;;5.20;;
3613;SDS011;1821;50.936;6.854;2023-01-19T02:48:42;7.32;;;5.10;;
3613;SDS011;1821;50.936;6.854;2023-01-19T02:49:26;6.30;;;5.50;;
3613;SDS011;1821;50.936;6.854;2023-01-19T02:52:06;7.88;;;5.72;;
3613;SDS011;1821;50.936;6.854;2023-01-19T02:52:57;8.82;;;5.47;;
3613;SDS011;1821;50.936;6.854;2023-01-19T02:55:09;6.50;;;5.70;;
3613;SDS011;1821;50.936;6.854;2023-01-19T02:57:11;8.90;;;5.88;;
3613;SDS011;1821;50.936;6.854;2023-01-19T02:58:16;7.20;;;5.80;;
3613;SDS011;1821;50.936;6.854;2023-01-19T03:02:37;6.88;;;5.30;;
3613;SDS011;1821;50.936;6.854;2023-01-19T03:04:50;7.95;;;5.57;;
3613;SDS011;1821;50.936;6.854;2023-01-19T03:09:29;7.40;;;5.53;;
3613;SDS011;1821;50.936;6.854;2023-01-19T03:11:20;8.27;;;6.13;;
3613;SDS011;1821;50.936;6.854;2023-01-19T03:12:08;8.00;;;5.40;;
3613;SDS011;1821;50.936;6.854;2023-01-19T03:12:59;7.40;;;5.40;;
3613;SDS011;1821;50.936;6.854;2023-01-19T03:14:54;8.40;;;5.88;;
3613;SDS011;1821;50.936;6.854;2023-01-19T03:15:45;9.13;;;5.97;;
3613;SDS011;1821;50.936;6.854;2023-01-19T03:16:45;8.70;;;6.20;;
3613;SDS011;1821;50.936;6.854;2023-01-19T03:17:32;9.30;;;6.07;;
3613;SDS011;1821;50.936;6.854;2023-01-19T03:18:19;8.00;;;5.93;;
3613;SDS011;1821;50.936;6.854;2023-01-19T03:19:57;7.53;;;5.63;;
3613;SDS011;1821;50.936;6.854;2023-01-19T03:20:40;8.38;;;6.03;;
3613;SDS011;1821;50.936;6.854;2023-01-19T03:21:25;8.75;;;6.20;;
3613;SDS011;1821;50.936;6.854;2023-01-19T03:22:12;6.57;;;5.32;;
3613;SDS011;1821;50.936;6.854;2023-01-19T03:23:09;9.50;;;5.90;;
3613;SDS011;1821;50.936;6.854;2023-01-19T03:23:52;7.57;;;5.10;;
3613;SDS011;1821;50.936;6.854;2023-01-19T03:24:40;6.40;;;5.00;;
3613;SDS011;1821;50.936;6.854;2023-01-19T03:25:24;8.10;;;5.50;;
3613;SDS011;1821;50.936;6.854;2023-01-19T03:26:08;10.13;;;5.70;;
3613;SDS011;1821;50.936;6.854;2023-01-19T03:27:00;6.90;;;5.30;;
3613;SDS011;1821;50.936;6.854;2023-01-19T03:27:49;9.20;;;5.65;;
3613;SDS011;1821;50.936;6.854;2023-01-19T03:28:34;8.55;;;5.70;;
3613;SDS011;1821;50.936;6.854;2023-01-19T03:29:18;6.80;;;5.57;;
3613;SDS011;1821;50.936;6.854;2023-01-19T03:30:06;6.18;;;5.10;;
3613;SDS011;1821;50.936;6.854;2023-01-19T03:31:04;9.35;;;5.80;;
3613;SDS011;1821;50.936;6.854;2023-01-19T03:31:51;7.55;;;5.60;;
3613;SDS011;1821;50.936;6.854;2023-01-19T03:32:38;8.23;;;6.38;;
3613;SDS011;1821;50.936;6.854;2023-01-19T03:33:28;6.43;;;5.82;;
3613;SDS011;1821;50.936;6.854;2023-01-19T03:34:13;7.53;;;6.10;;
3613;SDS011;1821;50.936;6.854;2023-01-19T03:34:58;6.90;;;6.20;;
3613;SDS011;1821;50.936;6.854;2023-01-19T03:35:45;7.72;;;6.18;;
3613;SDS011;1821;50.936;6.854;2023-01-19T03:36:35;8.40;;;5.55;;
3613;SDS011;1821;50.936;6.854;2023-01-19T03:37:27;6.95;;;5.38;;
3613;SDS011;1821;50.936;6.854;2023-01-19T03:38:13;6.63;;;5.40;;
3613;SDS011;1821;50.936;6.854;2023-01-19T03:38:57;8.75;;;5.63;;
3613;SDS011;1821;50.936;6.854;2023-01-19T03:39:40;9.45;;;5.80;;
3613;SDS011;1821;50.936;6.854;2023-01-19T03:40:24;9.10;;;6.30;;
3613;SDS011;1821;50.936;6.854;2023-01-19T03:41:09;9.38;;;6.20;;
3613;SDS011;1821;50.936;6.854;2023-01-19T03:41:57;7.55;;;5.78;;
3613;SDS011;1821;50.936;6.854;2023-01-19T03:42:43;9.35;;;6.30;;
3613;SDS011;1821;50.936;6.854;2023-01-19T03:43:26;7.05;;;6.00;;
3613;SDS011;1821;50.936;6.854;2023-01-19T03:44:09;8.15;;;6.20;;
3613;SDS011;1821;50.936;6.854;2023-01-19T03:44:52;8.93;;;6.40;;
3613;SDS011;1821;50.936;6.854;2023-01-19T03:45:37;8.82;;;6.10;;
3613;SDS011;1821;50.936;6.854;2023-01-19T03:46:20;7.35;;;5.80;;
3613;SDS011;1821;50.936;6.854;2023-01-19T03:47:04;7.50;;;5.25;;
3613;SDS011;1821;50.936;6.854;2023-01-19T03:47:48;6.05;;;5.18;;
3613;SDS011;1821;50.936;6.854;2023-01-19T03:48:31;6.57;;;5.63;;
3613;SDS011;1821;50.936;6.854;2023-01-19T03:49:14;6.60;;;5.80;;
3613;SDS011;1821;50.936;6.854;2023-01-19T03:49:58;7.85;;;6.00;;
3613;SDS011;1821;50.936;6.854;2023-01-19T03:50:43;7.15;;;5.68;;
3613;SDS011;1821;50.936;6.854;2023-01-19T03:51:28;8.15;;;5.90;;
3613;SDS011;1821;50.936;6.854;2023-01-19T03:52:10;11.23;;;5.93;;
3613;SDS011;1821;50.936;6.854;2023-01-19T03:53:09;8.85;;;5.50;;
3613;SDS011;1821;50.936;6.854;2023-01-19T03:53:52;5.95;;;5.32;;
3613;SDS011;1821;50.936;6.854;2023-01-19T03:54:36;8.40;;;5.05;;
3613;SDS011;1821;50.936;6.854;2023-01-19T03:55:19;8.52;;;5.50;;
3613;SDS011;1821;50.936;6.854;2023-01-19T03:56:00;8.25;;;5.70;;
3613;SDS011;1821;50.936;6.854;2023-01-19T03:56:43;9.57;;;6.10;;
3613;SDS011;1821;50.936;6.854;2023-01-19T03:57:25;7.90;;;5.43;;
3613;SDS011;1821;50.936;6.854;2023-01-19T03:58:07;9.38;;;5.60;;
3613;SDS011;1821;50.936;6.854;2023-01-19T03:58:50;11.75;;;5.85;;
3613;SDS011;1821;50.936;6.854;2023-01-19T03:59:32;10.10;;;5.80;;
3613;SDS011;1821;50.936;6.854;2023-01-19T04:00:14;10.23;;;5.93;;
3613;SDS011;1821;50.936;6.854;2023-01-19T04:00:56;9.68;;;5.45;;
3613;SDS011;1821;50.936;6.854;2023-01-19T04:01:38;6.13;;;5.00;;
3613;SDS011;1821;50.936;6.854;2023-01-19T04:02:23;9.32;;;5.45;;
3613;SDS011;1821;50.936;6.854;2023-01-19T04:03:05;9.20;;;5.22;;
3613;SDS011;1821;50.936;6.854;2023-01-19T04:03:53;5.80;;;5.18;;
3613;SDS011;1821;50.936;6.854;2023-01-19T04:04:34;8.13;;;5.70;;
3613;SDS011;1821;50.936;6.854;2023-01-19T04:05:16;8.90;;;6.55;;
3613;SDS011;1821;50.936;6.854;2023-01-19T04:05:59;8.38;;;5.40;;
3613;SDS011;1821;50.936;6.854;2023-01-19T04:06:41;6.97;;;5.47;;
3613;SDS011;1821;50.936;6.854;2023-01-19T04:07:23;7.72;;;5.38;;
3613;SDS011;1821;50.936;6.854;2023-01-19T04:08:05;9.43;;;5.55;;
3613;SDS011;1821;50.936;6.854;2023-01-19T04:08:48;8.45;;;5.70;;
3613;SDS011;1821;50.936;6.854;2023-01-19T04:09:31;8.63;;;6.05;;
3613;SDS011;1821;50.936;6.854;2023-01-19T04:10:13;6.63;;;5.13;;
3613;SDS011;1821;50.936;6.854;2023-01-19T04:10:56;6.50;;;5.10;;
3613;SDS011;1821;50.936;6.854;2023-01-19T04:11:38;6.38;;;5.32;;
3613;SDS011;1821;50.936;6.854;2023-01-19T04:12:20;7.40;;;5.50;;
3613;SDS011;1821;50.936;6.854;2023-01-19T04:13:02;9.00;;;5.80;;
3613;SDS011;1821;50.936;6.854;2023-01-19T04:13:44;7.15;;;5.53;;
3613;SDS011;1821;50.936;6.854;2023-01-19T04:14:26;6.85;;;5.43;;
3613;SDS011;1821;50.936;6.854;2023-01-19T04:15:08;8.65;;;6.05;;
3613;SDS011;1821;50.936;6.854;2023-01-19T04:15:52;9.07;;;5.50;;
3613;SDS011;1821;50.936;6.854;2023-01-19T04:16:37;7.00;;;5.20;;
3613;SDS011;1821;50.936;6.854;2023-01-19T04:17:19;7.20;;;5.13;;
3613;SDS011;1821;50.936;6.854;2023-01-19T04:18:00;8.02;;;5.50;;
3613;SDS011;1821;50.936;6.854;2023-01-19T04:18:45;7.20;;;5.47;;
3613;SDS011;1821;50.936;6.854;2023-01-19T04:19:27;6.80;;;5.30;;
3613;SDS011;1821;50.936;6.854;2023-01-19T04:20:09;8.48;;;5.20;;
3613;SDS011;1821;50.936;6.854;2023-01-19T04:20:51;7.97;;;5.50;;
3613;SDS011;1821;50.936;6.854;2023-01-19T04:21:33;5.80;;;5.20;;
3613;SDS011;1821;50.936;6.854;2023-01-19T04:22:15;6.10;;;4.70;;
3613;SDS011;1821;50.936;6.854;2023-01-19T04:22:59;5.30;;;4.60;;
3613;SDS011;1821;50.936;6.854;2023-01-19T04:23:42;6.18;;;5.10;;
3613;SDS011;1821;50.936;6.854;2023-01-19T04:24:27;6.13;;;4.97;;
3613;SDS011;1821;50.936;6.854;2023-01-19T04:25:09;8.35;;;5.40;;
3613;SDS011;1821;50.936;6.854;2023-01-19T04:25:55;9.50;;;5.65;;
3613;SDS011;1821;50.936;6.854;2023-01-19T04:26:38;5.75;;;5.00;;
3613;SDS011;1821;50.936;6.854;2023-01-19T04:27:20;7.93;;;5.15;;
3613;SDS011;1821;50.936;6.854;2023-01-19T04:28:02;6.88;;;5.28;;
3613;SDS011;1821;50.936;6.854;2023-01-19T04:28:46;8.35;;;5.60;;
3613;SDS011;1821;50.936;6.854;2023-01-19T04:29:28;5.82;;;4.90;;
3613;SDS011;1821;50.936;6.854;2023-01-19T04:30:10;7.30;;;5.28;;
3613;SDS011;1821;50.936;6.854;2023-01-19T04:30:55;5.53;;;5.00;;
3613;SDS011;1821;50.936;6.854;2023-01-19T04:31:37;7.68;;;5.50;;
3613;SDS011;1821;50.936;6.854;2023-01-19T04:32:19;7.05;;;4.97;;
3613;SDS011;1821;50.936;6.854;2023-01-19T04:33:00;9.38;;;4.63;;
3613;SDS011;1821;50.936;6.854;2023-01-19T04:33:43;10.40;;;5.05;;
3613;SDS011;1821;50.936;6.854;2023-01-19T04:34:25;7.50;;;5.47;;
3613;SDS011;1821;50.936;6.854;2023-01-19T04:35:07;7.10;;;4.93;;
3613;SDS011;1821;50.936;6.854;2023-01-19T04:35:51;6.00;;;4.55;;
3613;SDS011;1821;50.936;6.854;2023-01-19T04:36:36;6.30;;;4.40;;
3613;SDS011;1821;50.936;6.854;2023-01-19T04:37:17;6.40;;;4.60;;
3613;SDS011;1821;50.936;6.854;2023-01-19T04:38:02;5.95;;;4.20;;
3613;SDS011;1821;50.936;6.854;2023-01-19T04:38:44;6.40;;;4.40;;
3613;SDS011;1821;50.936;6.854;2023-01-19T04:39:26;5.55;;;4.15;;
3613;SDS011;1821;50.936;6.854;2023-01-19T04:40:08;7.13;;;4.22;;
3613;SDS011;1821;50.936;6.854;2023-01-19T04:40:51;6.47;;;4.50;;
3613;SDS011;1821;50.936;6.854;2023-01-19T04:41:34;7.20;;;4.20;;
3613;SDS011;1821;50.936;6.854;2023-01-19T04:42:15;8.10;;;4.30;;
3613;SDS011;1821;50.936;6.854;2023-01-19T04:42:57;7.75;;;4.63;;
3613;SDS011;1821;50.936;6.854;2023-01-19T04:43:40;9.10;;;4.90;;
3613;SDS011;1821;50.936;6.854;2023-01-19T04:44:22;9.85;;;4.70;;
3613;SDS011;1821;50.936;6.854;2023-01-19T04:45:04;9.25;;;5.25;;
3613;SDS011;1821;50.936;6.854;2023-01-19T04:45:46;9.95;;;5.40;;
3613;SDS011;1821;50.936;6.854;2023-01-19T04:46:28;9.23;;;5.10;;
3613;SDS011;1821;50.936;6.854;2023-01-19T04:47:10;11.85;;;5.47;;
3613;SDS011;1821;50.936;6.854;2023-01-19T04:47:52;8.50;;;4.85;;
3613;SDS011;1821;50.936;6.854;2023-01-19T04:48:34;7.40;;;5.50;;
3613;SDS011;1821;50.936;6.854;2023-01-19T04:49:16;8.25;;;5.18;;
3613;SDS011;1821;50.936;6.854;2023-01-19T04:49:58;8.52;;;5.20;;
3613;SDS011;1821;50.936;6.854;2023-01-19T04:50:40;9.00;;;6.03;;
3613;SDS011;1821;50.936;6.854;2023-01-19T04:51:22;9.40;;;5.50;;
3613;SDS011;1821;50.936;6.854;2023-01-19T04:52:04;9.43;;;5.10;;
3613;SDS011;1821;50.936;6.854;2023-01-19T04:52:46;7.13;;;5.00;;
3613;SDS011;1821;50.936;6.854;2023-01-19T04:53:28;8.90;;;5.90;;
3613;SDS011;1821;50.936;6.854;2023-01-19T04:54:10;10.77;;;5.78;;
3613;SDS011;1821;50.936;6.854;2023-01-19T04:54:52;10.63;;;5.63;;
3613;SDS011;1821;50.936;6.854;2023-01-19T04:55:35;8.37;;;5.90;;